Milky Way — WDI8180 — position and weather

sailwx.info

Track history (hours):
 
Tides and Currents Weather Stations Pressure Air Temp Water Temp Dewpoint Dewpoint Depression Visibility Wind Speed Wind Dir Waves Ship Positions

Milky Way

Owner: Champange, Todd M, Galliano, LA. More information available from US FCC via Universal Licensing System and Coast Guard Vessel Documentation Center.

Last reported at 2017-Oct-13 05:27 UTC. Time now 2017-Nov-21 09:55 UTC.
Position N 29°27' W 092°13'.
Warning: this ship's position is 39 days out of date.

Length 24 m.

Type: Fishing. MMSI: 367736030.

Date/timePositionNaut miles runAvg speedWind from/ knotsBaromVisibWave heightAir tempDewpointWater temp
2017-Oct-13 05:27N 29°27' W 092°13'1 0.0
2017-Oct-12 04:25N 29°28' W 092°14'  
2017-Oct-08 22:01N 29°33' W 092°08'1 2.6
2017-Oct-08 21:49N 29°33' W 092°09'2 1.5
2017-Oct-08 20:40N 29°34' W 092°07'0 2.2
2017-Oct-08 20:30N 29°34' W 092°07'1 2.1
2017-Oct-08 19:55N 29°34' W 092°05'5 3.3
2017-Oct-08 18:16N 29°37' W 092°00'2 8.0
2017-Oct-08 18:01N 29°39' W 092°02'3 6.9
2017-Oct-08 17:31N 29°42' W 092°04'3 6.6
2017-Oct-08 17:00N 29°44' W 092°06'3 6.5
2017-Oct-08 16:31N 29°47' W 092°08'4 7.7
2017-Oct-08 16:01N 29°49' W 092°04'  
2017-Oct-03 16:52N 29°51' W 091°57'3 7.9
2017-Oct-03 16:30N 29°50' W 091°60'4 8.0
2017-Oct-03 16:00N 29°48' W 092°04'4 8.2
2017-Oct-03 15:30N 29°47' W 092°08'4 7.2
2017-Oct-03 15:00N 29°44' W 092°06'  
Track history (hours):
 
Tides and Currents Weather Stations Pressure Air Temp Water Temp Dewpoint Dewpoint Depression Visibility Wind Speed Wind Dir Waves Ship Positions

Milky Way

Owner: Champange, Todd M, Galliano, LA. More information available from US FCC via Universal Licensing System and Coast Guard Vessel Documentation Center.

Last reported at 2017-Oct-13 05:27 UTC. Time now 2017-Nov-21 09:55 UTC.
Position N 29°27' W 092°13'.
Warning: this ship's position is 39 days out of date.

Length 24 m.

Type: Fishing. MMSI: 367736030.

Date/timePositionNaut miles runAvg speedWind from/ knotsBaromVisibWave heightAir tempDewpointWater temp
2017-Oct-13 05:27N 29°27' W 092°13'1 0.0
2017-Oct-12 04:25N 29°28' W 092°14'  
2017-Oct-08 22:01N 29°33' W 092°08'1 2.6
2017-Oct-08 21:49N 29°33' W 092°09'2 1.5
2017-Oct-08 20:40N 29°34' W 092°07'0 2.2
2017-Oct-08 20:30N 29°34' W 092°07'1 2.1
2017-Oct-08 19:55N 29°34' W 092°05'5 3.3
2017-Oct-08 18:16N 29°37' W 092°00'2 8.0
2017-Oct-08 18:01N 29°39' W 092°02'3 6.9
2017-Oct-08 17:31N 29°42' W 092°04'3 6.6
2017-Oct-08 17:00N 29°44' W 092°06'3 6.5
2017-Oct-08 16:31N 29°47' W 092°08'4 7.7
2017-Oct-08 16:01N 29°49' W 092°04'  
2017-Oct-03 16:52N 29°51' W 091°57'3 7.9
2017-Oct-03 16:30N 29°50' W 091°60'4 8.0
2017-Oct-03 16:00N 29°48' W 092°04'4 8.2
2017-Oct-03 15:30N 29°47' W 092°08'4 7.2
2017-Oct-03 15:00N 29°44' W 092°06'  

Dump ship's entire track history